createdAt,value
2022-10-16T00:02:48.527Z,95687.00
2022-10-16T00:06:51.267Z,95687.00
2022-10-16T00:10:54.079Z,95683.00
2022-10-16T00:14:58.136Z,95682.00
2022-10-16T00:19:01.140Z,95680.00
2022-10-16T00:23:04.198Z,95691.00
2022-10-16T00:27:06.905Z,95681.00
2022-10-16T00:31:12.791Z,95677.00
2022-10-16T00:35:15.552Z,95680.00
2022-10-16T00:39:18.307Z,95695.00
2022-10-16T00:43:38.199Z,95691.00
2022-10-16T00:47:46.868Z,95695.00
2022-10-16T00:51:52.738Z,95691.00
2022-10-16T00:55:56.002Z,95697.00
2022-10-16T00:59:59.698Z,95698.00
2022-10-16T01:04:03.779Z,95700.00
2022-10-16T01:08:13.065Z,95705.00
2022-10-16T01:12:21.130Z,95703.00
2022-10-16T01:16:32.435Z,95701.00
2022-10-16T01:20:40.754Z,95714.00
2022-10-16T01:29:00.340Z,95706.00
2022-10-16T01:33:10.162Z,95707.00
2022-10-16T01:37:18.327Z,95697.00
2022-10-16T01:41:26.397Z,95698.00
2022-10-16T01:45:33.162Z,95695.00
2022-10-16T01:49:38.581Z,95694.00
2022-10-16T01:53:43.667Z,95686.00
2022-10-16T01:57:50.850Z,95689.00
2022-10-16T02:02:01.544Z,95684.00
2022-10-16T02:06:04.429Z,95692.00
2022-10-16T02:10:07.633Z,95695.00
2022-10-16T02:14:10.379Z,95692.00
2022-10-16T02:18:14.768Z,95683.00
2022-10-16T02:22:21.787Z,95676.00
2022-10-16T02:26:32.616Z,95690.00
2022-10-16T02:30:39.926Z,95694.00
2022-10-16T02:34:44.812Z,95699.00
2022-10-16T02:38:47.990Z,95701.00
2022-10-16T02:42:52.710Z,95699.00
2022-10-16T02:46:55.413Z,95695.00
2022-10-16T02:50:59.871Z,95701.00
2022-10-16T02:55:02.639Z,95706.00
2022-10-16T02:59:05.549Z,95704.00
2022-10-16T03:03:08.303Z,95703.00
2022-10-16T03:07:12.562Z,95700.00
2022-10-16T03:11:15.231Z,95696.00
2022-10-16T03:15:18.067Z,95708.00
2022-10-16T03:19:21.698Z,95704.00
2022-10-16T03:23:25.816Z,95702.00
2022-10-16T03:27:29.056Z,95717.00
2022-10-16T03:31:32.282Z,95714.00
2022-10-16T03:35:35.346Z,95717.00
2022-10-16T03:39:39.383Z,95715.00
2022-10-16T03:43:42.599Z,95724.00
2022-10-16T03:47:45.356Z,95706.00
2022-10-16T03:51:48.054Z,95721.00
2022-10-16T03:55:52.228Z,95715.00
2022-10-16T03:59:54.933Z,95705.00
2022-10-16T04:03:57.633Z,95710.00
2022-10-16T04:08:00.329Z,95705.00
2022-10-16T04:12:04.714Z,95703.00
2022-10-16T04:16:07.782Z,95709.00
2022-10-16T04:20:10.931Z,95705.00
2022-10-16T04:24:13.619Z,95710.00
2022-10-16T04:28:17.702Z,95716.00
2022-10-16T04:32:20.347Z,95723.00
2022-10-16T04:36:25.403Z,95735.00
2022-10-16T04:40:33.694Z,95718.00
2022-10-16T04:44:37.787Z,95706.00
2022-10-16T04:48:40.485Z,95694.00
2022-10-16T04:52:43.175Z,95716.00
2022-10-16T04:56:48.298Z,95726.00
2022-10-16T05:00:52.342Z,95722.00
2022-10-16T05:04:55.095Z,95704.00
2022-10-16T05:08:57.757Z,95709.00
2022-10-16T05:13:00.462Z,95715.00
2022-10-16T05:17:04.551Z,95722.00
2022-10-16T05:21:07.734Z,95729.00
2022-10-16T05:25:10.509Z,95726.00
2022-10-16T05:29:13.305Z,95729.00
2022-10-16T05:33:17.465Z,95726.00
2022-10-16T05:37:20.182Z,95734.00
2022-10-16T05:41:24.475Z,95739.00
2022-10-16T05:45:27.170Z,95740.00
2022-10-16T05:49:31.226Z,95743.00
2022-10-16T05:53:36.416Z,95747.00
2022-10-16T05:57:39.526Z,95750.00
2022-10-16T06:01:42.241Z,95748.00
2022-10-16T06:05:46.238Z,95756.00
2022-10-16T06:09:50.543Z,95754.00
2022-10-16T06:13:53.962Z,95766.00
2022-10-16T06:17:56.641Z,95764.00
2022-10-16T06:22:03.546Z,95766.00
2022-10-16T06:26:07.568Z,95778.00
2022-10-16T06:30:11.349Z,95776.00
2022-10-16T06:34:14.057Z,95782.00
2022-10-16T06:38:18.159Z,95792.00
2022-10-16T06:42:21.172Z,95793.00
2022-10-16T06:46:25.399Z,95799.00
2022-10-16T06:50:28.080Z,95800.00
2022-10-16T06:54:39.765Z,95798.00
2022-10-16T06:58:45.966Z,95804.00
2022-10-16T07:02:48.709Z,95819.00
2022-10-16T07:06:52.482Z,95812.00
2022-10-16T07:11:02.103Z,95818.00
2022-10-16T07:15:05.170Z,95828.00
2022-10-16T07:19:07.858Z,95829.00
2022-10-16T07:23:10.636Z,95834.00
2022-10-16T07:27:14.714Z,95836.00
2022-10-16T07:31:21.163Z,95856.00
2022-10-16T07:35:23.705Z,95857.00
2022-10-16T07:39:26.422Z,95863.00
2022-10-16T07:43:30.994Z,95868.00
2022-10-16T07:47:33.683Z,95870.00
2022-10-16T07:51:36.448Z,95877.00
2022-10-16T07:55:39.557Z,95876.00
2022-10-16T07:59:43.640Z,95883.00
2022-10-16T08:03:47.523Z,95877.00
2022-10-16T08:07:50.639Z,95878.00
2022-10-16T08:11:53.661Z,95881.00
2022-10-16T08:15:57.707Z,95885.00
2022-10-16T08:20:00.442Z,95891.00
2022-10-16T08:24:03.162Z,95889.00
2022-10-16T08:28:07.148Z,95902.00
2022-10-16T08:32:11.367Z,95902.00
2022-10-16T08:36:14.089Z,95919.00
2022-10-16T08:40:21.425Z,95918.00
2022-10-16T08:44:45.202Z,95920.00
2022-10-16T08:48:51.106Z,95919.00
2022-10-16T08:52:54.054Z,95921.00
2022-10-16T08:56:57.749Z,95928.00
2022-10-16T09:01:03.335Z,95926.00
2022-10-16T09:05:48.086Z,95937.00
2022-10-16T09:10:02.260Z,95930.00
2022-10-16T09:14:13.833Z,95926.00
2022-10-16T09:18:29.963Z,95943.00
2022-10-16T09:22:37.288Z,95946.00
2022-10-16T09:26:40.032Z,95945.00
2022-10-16T09:30:42.836Z,95951.00
2022-10-16T09:34:48.811Z,95954.00
2022-10-16T09:39:05.270Z,95958.00
2022-10-16T09:43:22.873Z,95964.00
2022-10-16T09:47:28.545Z,95970.00
2022-10-16T09:51:33.227Z,95971.00
2022-10-16T09:55:37.479Z,95980.00
2022-10-16T09:59:48.150Z,95978.00
2022-10-16T10:03:53.691Z,95982.00
2022-10-16T10:07:58.663Z,95987.00
2022-10-16T10:16:12.202Z,95994.00
2022-10-16T10:20:24.905Z,95992.00
2022-10-16T10:24:27.704Z,95996.00
2022-10-16T10:28:46.591Z,96004.00
2022-10-16T10:33:00.268Z,95996.00
2022-10-16T10:37:09.780Z,95989.00
2022-10-16T10:41:35.210Z,95996.00
2022-10-16T10:45:45.476Z,95997.00
2022-10-16T10:49:59.605Z,96000.00
2022-10-16T10:54:12.386Z,96011.00
2022-10-16T10:58:39.292Z,96001.00
2022-10-16T11:02:48.153Z,96009.00
2022-10-16T11:06:53.445Z,95997.00
2022-10-16T11:11:01.205Z,95999.00
2022-10-16T11:15:13.385Z,96005.00
2022-10-16T11:19:33.645Z,96007.00
2022-10-16T11:23:44.663Z,96005.00
2022-10-16T11:27:53.924Z,96013.00
2022-10-16T11:32:02.523Z,95997.00
2022-10-16T11:36:15.059Z,96002.00
2022-10-16T11:40:23.937Z,95994.00
2022-10-16T11:44:37.950Z,96003.00
2022-10-16T11:48:44.967Z,96007.00
2022-10-16T11:52:57.479Z,96013.00
2022-10-16T11:57:13.011Z,96018.00
2022-10-16T12:01:21.758Z,96016.00
2022-10-16T12:05:32.314Z,96024.00
2022-10-16T12:09:39.375Z,96017.00
2022-10-16T12:13:44.314Z,96021.00
2022-10-16T12:17:47.019Z,96021.00
2022-10-16T12:21:51.692Z,96019.00
2022-10-16T12:25:59.285Z,96020.00
2022-10-16T12:30:03.671Z,96018.00
2022-10-16T12:34:06.570Z,96020.00
2022-10-16T12:38:17.576Z,96016.00
2022-10-16T12:42:36.828Z,96011.00
2022-10-16T12:46:41.858Z,96014.00
2022-10-16T12:50:45.187Z,96006.00
2022-10-16T12:54:48.751Z,96002.00
2022-10-16T12:59:05.801Z,96002.00
2022-10-16T13:03:31.031Z,96002.00
2022-10-16T13:07:47.678Z,96005.00
2022-10-16T13:12:01.925Z,96012.00
2022-10-16T13:16:11.398Z,96027.00
2022-10-16T13:20:21.720Z,96021.00
2022-10-16T13:24:39.818Z,96028.00
2022-10-16T13:28:42.637Z,96024.00
2022-10-16T13:32:49.601Z,96021.00
2022-10-16T13:36:54.040Z,96032.00
2022-10-16T13:40:58.097Z,96024.00
2022-10-16T13:45:00.840Z,96034.00
2022-10-16T13:49:06.795Z,96033.00
2022-10-16T13:53:16.000Z,96042.00
2022-10-16T13:57:27.117Z,96044.00
2022-10-16T14:01:33.027Z,96048.00
2022-10-16T14:05:37.376Z,96050.00
2022-10-16T14:09:40.634Z,96051.00
2022-10-16T14:13:47.390Z,96042.00
2022-10-16T14:17:52.886Z,96046.00
2022-10-16T14:21:58.405Z,96053.00
2022-10-16T14:26:19.871Z,96050.00
2022-10-16T14:30:24.264Z,96047.00
2022-10-16T14:34:33.835Z,96045.00
2022-10-16T14:38:38.752Z,96044.00
2022-10-16T14:42:46.041Z,96053.00
2022-10-16T14:46:48.906Z,96048.00
2022-10-16T14:50:51.819Z,96047.00
2022-10-16T14:54:57.395Z,96047.00
2022-10-16T14:59:00.379Z,96049.00
2022-10-16T15:03:03.110Z,96053.00
2022-10-16T15:07:05.849Z,96055.00
2022-10-16T15:11:14.351Z,96054.00
2022-10-16T15:15:34.174Z,96060.00
2022-10-16T15:19:37.502Z,96055.00
2022-10-16T15:23:40.494Z,96060.00
2022-10-16T15:27:44.645Z,96059.00
2022-10-16T15:31:48.559Z,96065.00
2022-10-16T15:35:52.982Z,96066.00
2022-10-16T15:39:55.674Z,96069.00
2022-10-16T15:43:59.793Z,96067.00
2022-10-16T15:48:02.894Z,96071.00
2022-10-16T15:52:05.697Z,96080.00
2022-10-16T15:56:10.551Z,96083.00
2022-10-16T16:00:18.841Z,96080.00
2022-10-16T16:08:44.305Z,96090.00
2022-10-16T16:12:52.494Z,96085.00
2022-10-16T16:16:56.762Z,96085.00
2022-10-16T16:20:59.479Z,96087.00
2022-10-16T16:25:02.159Z,96093.00
2022-10-16T16:29:05.514Z,96092.00
2022-10-16T16:33:09.676Z,96096.00
2022-10-16T16:37:12.346Z,96105.00
2022-10-16T16:41:16.252Z,96107.00
2022-10-16T16:45:19.019Z,96115.00
2022-10-16T16:49:23.415Z,96108.00
2022-10-16T16:53:26.285Z,96113.00
2022-10-16T16:57:29.354Z,96118.00
2022-10-16T17:01:32.878Z,96118.00
2022-10-16T17:05:36.943Z,96136.00
2022-10-16T17:09:39.666Z,96136.00
2022-10-16T17:13:42.457Z,96145.00
2022-10-16T17:17:45.286Z,96147.00
2022-10-16T17:21:51.662Z,96157.00
2022-10-16T17:25:54.510Z,96156.00
2022-10-16T17:29:57.225Z,96159.00
2022-10-16T17:34:00.721Z,96162.00
2022-10-16T17:38:04.817Z,96170.00
2022-10-16T17:42:07.538Z,96170.00
2022-10-16T17:46:11.798Z,96173.00
2022-10-16T17:50:15.727Z,96179.00
2022-10-16T17:54:20.990Z,96181.00
2022-10-16T17:58:23.747Z,96189.00
2022-10-16T18:02:26.910Z,96192.00
2022-10-16T18:06:30.211Z,96195.00
2022-10-16T18:10:34.323Z,96190.00
2022-10-16T18:14:37.066Z,96203.00
2022-10-16T18:18:41.087Z,96195.00
2022-10-16T18:22:43.906Z,96204.00
2022-10-16T18:26:50.243Z,96201.00
2022-10-16T18:30:57.178Z,96201.00
2022-10-16T18:34:59.989Z,96202.00
2022-10-16T18:39:09.133Z,96205.00
2022-10-16T18:43:13.615Z,96206.00
2022-10-16T18:47:16.309Z,96213.00
2022-10-16T18:51:20.992Z,96208.00
2022-10-16T18:55:28.893Z,96202.00
2022-10-16T18:59:35.159Z,96206.00
2022-10-16T19:03:38.619Z,96204.00
2022-10-16T19:07:43.205Z,96206.00
2022-10-16T19:11:46.337Z,96216.00
2022-10-16T19:15:58.293Z,96222.00
2022-10-16T19:20:01.410Z,96231.00
2022-10-16T19:24:05.175Z,96236.00
2022-10-16T19:28:08.495Z,96222.00
2022-10-16T19:32:12.621Z,96229.00
2022-10-16T19:36:17.134Z,96228.00
2022-10-16T19:40:19.827Z,96237.00
2022-10-16T19:44:22.548Z,96248.00
2022-10-16T19:48:26.627Z,96242.00
2022-10-16T19:52:29.603Z,96246.00
2022-10-16T19:56:34.278Z,96248.00
2022-10-16T20:00:36.958Z,96244.00
2022-10-16T20:04:40.978Z,96246.00
2022-10-16T20:08:45.684Z,96255.00
2022-10-16T20:12:48.387Z,96254.00
2022-10-16T20:16:53.208Z,96248.00
2022-10-16T20:20:57.277Z,96258.00
2022-10-16T20:25:00.025Z,96264.00
2022-10-16T20:29:03.161Z,96260.00
2022-10-16T20:33:08.253Z,96270.00
2022-10-16T20:37:12.295Z,96266.00
2022-10-16T20:41:15.511Z,96273.00
2022-10-16T20:45:18.422Z,96277.00
2022-10-16T20:49:39.281Z,96285.00
2022-10-16T20:53:43.958Z,96275.00
2022-10-16T20:57:46.711Z,96278.00
2022-10-16T21:01:49.561Z,96276.00
2022-10-16T21:05:54.404Z,96271.00
2022-10-16T21:10:01.843Z,96281.00
2022-10-16T21:14:06.385Z,96278.00
2022-10-16T21:18:09.134Z,96275.00
2022-10-16T21:22:12.442Z,96277.00
2022-10-16T21:26:18.097Z,96270.00
2022-10-16T21:30:20.909Z,96277.00
2022-10-16T21:34:23.677Z,96277.00
2022-10-16T21:38:26.999Z,96283.00
2022-10-16T21:42:31.266Z,96280.00
2022-10-16T21:46:36.062Z,96284.00
2022-10-16T21:50:38.772Z,96286.00
2022-10-16T21:54:41.690Z,96276.00
2022-10-16T21:58:46.613Z,96277.00
2022-10-16T22:02:49.410Z,96281.00
2022-10-16T22:06:52.098Z,96280.00
2022-10-16T22:10:54.823Z,96274.00
2022-10-16T22:14:58.923Z,96255.00
2022-10-16T22:19:03.387Z,96274.00
2022-10-16T22:23:06.133Z,96273.00
2022-10-16T22:27:08.851Z,96274.00
2022-10-16T22:31:15.308Z,96276.00
2022-10-16T22:35:18.197Z,96274.00
2022-10-16T22:39:20.910Z,96277.00
2022-10-16T22:43:23.601Z,96276.00
2022-10-16T22:47:27.876Z,96276.00
2022-10-16T22:51:30.746Z,96281.00
2022-10-16T22:55:33.466Z,96291.00
2022-10-16T22:59:36.227Z,96290.00
2022-10-16T23:03:40.317Z,96280.00
2022-10-16T23:07:44.671Z,96287.00
2022-10-16T23:11:47.356Z,96282.00
2022-10-16T23:15:50.027Z,96282.00
2022-10-16T23:19:54.219Z,96277.00
2022-10-16T23:23:57.010Z,96274.00
2022-10-16T23:27:59.666Z,96282.00
2022-10-16T23:32:02.390Z,96284.00
2022-10-16T23:36:08.321Z,96282.00
2022-10-16T23:40:12.031Z,96280.00
2022-10-16T23:44:14.705Z,96286.00
2022-10-16T23:48:17.423Z,96288.00
2022-10-16T23:52:21.552Z,96294.00
2022-10-16T23:56:24.291Z,96296.00
